createdAt,value
2023-12-14T05:07:25.206Z,8.83
2023-12-14T05:10:27.965Z,8.83
2023-12-14T05:13:31.091Z,8.18
2023-12-14T05:16:33.591Z,7.98
2023-12-14T05:19:37.430Z,7.95
2023-12-14T05:22:40.519Z,7.87
2023-12-14T05:25:42.941Z,7.86
2023-12-14T05:28:46.141Z,7.87
2023-12-14T05:31:48.570Z,7.91
2023-12-14T05:34:51.543Z,7.81
2023-12-14T05:37:54.063Z,7.90
2023-12-14T05:40:56.539Z,7.95
2023-12-14T05:43:59.958Z,7.89
2023-12-14T05:47:02.481Z,7.82
2023-12-14T05:50:05.730Z,7.77
2023-12-14T05:53:08.211Z,7.84
2023-12-14T05:56:10.531Z,8.06
2023-12-14T05:59:13.120Z,8.11
2023-12-14T06:02:15.508Z,8.17
2023-12-14T06:05:18.486Z,8.24
2023-12-14T06:08:20.811Z,8.25
2023-12-14T06:11:24.590Z,8.38
2023-12-14T06:14:27.853Z,8.23
2023-12-14T06:17:31.404Z,8.09
2023-12-14T06:20:33.971Z,8.05
2023-12-14T06:23:37.431Z,8.06
2023-12-14T06:26:46.264Z,7.91
2023-12-14T06:29:48.927Z,7.90
2023-12-14T06:32:51.126Z,8.00
2023-12-14T06:35:53.562Z,7.84
2023-12-14T06:38:56.522Z,7.85
2023-12-14T06:42:01.087Z,7.76
2023-12-14T06:45:04.589Z,7.70
2023-12-14T06:48:07.180Z,7.71
2023-12-14T06:51:09.622Z,7.69
2023-12-14T06:54:12.301Z,7.79
2023-12-14T06:57:14.668Z,7.91
2023-12-14T07:00:17.622Z,8.05
2023-12-14T07:03:20.160Z,8.01
2023-12-14T07:06:23.641Z,8.17
2023-12-14T07:09:26.578Z,8.18
2023-12-14T07:12:31.302Z,8.21
2023-12-14T07:15:34.008Z,8.25
2023-12-14T07:18:38.657Z,8.27
2023-12-14T07:21:40.932Z,8.22
2023-12-14T07:24:52.180Z,8.28
2023-12-14T07:27:55.325Z,8.30
2023-12-14T07:30:58.289Z,8.43
2023-12-14T07:34:00.595Z,8.38
2023-12-14T07:37:03.073Z,8.35
2023-12-14T07:40:05.945Z,8.17
2023-12-14T07:43:11.067Z,8.12
2023-12-14T07:46:13.266Z,8.18
2023-12-14T07:49:16.158Z,8.27
2023-12-14T07:52:18.658Z,8.35
2023-12-14T07:55:21.897Z,8.20
2023-12-14T07:58:24.215Z,8.10
2023-12-14T08:01:26.884Z,8.13
2023-12-14T08:04:29.358Z,8.11
2023-12-14T08:07:32.757Z,8.31
2023-12-14T08:10:35.471Z,8.44
2023-12-14T08:13:38.973Z,8.46
2023-12-14T08:16:44.652Z,8.47
2023-12-14T08:19:47.052Z,8.50
2023-12-14T08:22:49.874Z,8.47
2023-12-14T08:25:52.161Z,8.44
2023-12-14T08:28:54.687Z,8.49
2023-12-14T08:32:00.481Z,8.48
2023-12-14T08:35:03.738Z,8.55
2023-12-14T08:38:06.141Z,8.59
2023-12-14T08:41:09.012Z,8.68
2023-12-14T08:44:11.564Z,8.77
2023-12-14T08:47:14.081Z,8.84
2023-12-14T08:50:16.918Z,8.80
2023-12-14T08:53:19.415Z,8.80
2023-12-14T08:56:22.163Z,8.79
2023-12-14T08:59:24.802Z,8.91
2023-12-14T09:02:29.103Z,8.88
2023-12-14T09:05:31.873Z,9.06
2023-12-14T09:08:34.255Z,9.15
2023-12-14T09:11:37.514Z,9.01
2023-12-14T09:14:39.707Z,9.08
2023-12-14T09:17:43.567Z,9.04
2023-12-14T09:20:46.106Z,9.09
2023-12-14T09:23:48.804Z,9.21
2023-12-14T09:26:50.940Z,9.18
2023-12-14T09:29:53.349Z,9.30
2023-12-14T09:32:55.778Z,9.28
2023-12-14T09:35:58.291Z,9.24
2023-12-14T09:39:00.575Z,9.35
2023-12-14T09:42:08.313Z,9.50
2023-12-14T09:45:10.725Z,9.49
2023-12-14T09:48:14.280Z,9.47
2023-12-14T09:51:17.305Z,9.66
2023-12-14T09:54:19.697Z,9.77
2023-12-14T09:57:26.713Z,9.60
2023-12-14T10:00:37.332Z,9.57
2023-12-14T10:03:39.907Z,9.50
2023-12-14T10:06:44.116Z,9.81
2023-12-14T10:09:46.922Z,9.78
2023-12-14T10:12:56.693Z,9.64
2023-12-14T10:16:00.125Z,9.96
2023-12-14T10:19:02.889Z,9.93
2023-12-14T10:22:09.564Z,9.82
2023-12-14T10:25:12.168Z,9.79
2023-12-14T10:28:16.213Z,9.78
2023-12-14T10:31:23.768Z,9.76
2023-12-14T10:34:26.538Z,9.78
2023-12-14T10:37:30.739Z,9.82
2023-12-14T10:40:35.416Z,9.80
2023-12-14T10:43:48.438Z,9.75
2023-12-14T10:46:57.251Z,9.78
2023-12-14T10:50:02.851Z,9.76
2023-12-14T10:53:06.641Z,9.92
2023-12-14T10:56:12.004Z,10.02
2023-12-14T10:59:19.331Z,9.99
2023-12-14T11:02:21.469Z,10.11
2023-12-14T11:05:31.620Z,10.05
2023-12-14T11:08:35.788Z,10.05
2023-12-14T11:12:10.137Z,10.05
2023-12-14T11:15:12.331Z,9.90
2023-12-14T11:18:14.824Z,9.91
2023-12-14T11:21:23.570Z,10.11
2023-12-14T11:24:27.072Z,9.92
2023-12-14T11:27:30.727Z,9.70
2023-12-14T11:30:44.124Z,9.83
2023-12-14T11:33:58.729Z,10.01
2023-12-14T11:37:01.679Z,10.03
2023-12-14T11:40:06.309Z,10.03
2023-12-14T11:43:09.601Z,9.99
2023-12-14T11:46:13.023Z,10.01
2023-12-14T11:49:16.764Z,9.83
2023-12-14T11:52:19.478Z,9.97
2023-12-14T11:55:22.914Z,9.75
2023-12-14T11:58:25.864Z,9.49
2023-12-14T12:01:29.531Z,9.38
2023-12-14T12:04:32.219Z,9.65
2023-12-14T12:07:34.856Z,9.55
2023-12-14T12:10:38.831Z,9.38
2023-12-14T12:13:41.310Z,9.62
2023-12-14T12:16:43.863Z,9.61
2023-12-14T12:19:46.404Z,9.57
2023-12-14T12:22:48.931Z,9.74
2023-12-14T12:25:51.159Z,9.90
2023-12-14T12:28:53.762Z,10.06
2023-12-14T12:31:56.037Z,10.11
2023-12-14T12:34:58.601Z,10.14
2023-12-14T12:38:00.972Z,10.15
2023-12-14T12:41:03.655Z,10.00
2023-12-14T12:44:07.178Z,10.09
2023-12-14T12:47:11.551Z,10.14
2023-12-14T12:50:14.799Z,10.32
2023-12-14T12:53:17.586Z,10.10
2023-12-14T12:56:20.593Z,10.15
2023-12-14T12:59:23.457Z,10.17
2023-12-14T13:02:25.681Z,10.30
2023-12-14T13:05:28.453Z,10.38
2023-12-14T13:08:30.666Z,10.46
2023-12-14T13:11:33.703Z,10.29
2023-12-14T13:14:35.978Z,10.11
2023-12-14T13:17:39.156Z,10.02
2023-12-14T13:20:41.571Z,9.93
2023-12-14T13:23:45.110Z,9.63
2023-12-14T13:26:47.983Z,10.06
2023-12-14T13:29:50.483Z,10.24
2023-12-14T13:32:54.839Z,9.89
2023-12-14T13:35:57.442Z,9.85
2023-12-14T13:39:00.328Z,9.94
2023-12-14T13:42:03.150Z,10.07
2023-12-14T13:45:06.479Z,10.07
2023-12-14T13:48:09.959Z,10.27
2023-12-14T13:51:12.191Z,10.23
2023-12-14T13:54:14.599Z,10.14
2023-12-14T13:57:16.825Z,9.96
2023-12-14T14:00:20.324Z,10.08
2023-12-14T14:03:24.565Z,10.02
2023-12-14T14:06:26.991Z,10.05
2023-12-14T14:09:29.613Z,10.22
2023-12-14T14:12:31.798Z,10.28
2023-12-14T14:15:34.283Z,10.31
2023-12-14T14:18:36.733Z,10.39
2023-12-14T14:21:39.870Z,10.57
2023-12-14T14:24:42.069Z,10.65
2023-12-14T14:27:47.868Z,10.49
2023-12-14T14:30:50.222Z,10.22
2023-12-14T14:33:52.745Z,10.22
2023-12-14T14:36:54.991Z,10.18
2023-12-14T14:39:57.494Z,10.11
2023-12-14T14:42:59.837Z,10.05
2023-12-14T14:46:02.566Z,10.37
2023-12-14T14:49:04.868Z,10.22
2023-12-14T14:52:07.984Z,10.34
2023-12-14T14:55:10.383Z,10.26
2023-12-14T14:58:12.928Z,10.29
2023-12-14T15:01:15.240Z,10.23
2023-12-14T15:04:18.471Z,10.24
2023-12-14T15:07:20.679Z,10.11
2023-12-14T15:10:23.138Z,10.04
2023-12-14T15:13:25.717Z,10.03
2023-12-14T15:16:28.257Z,9.84
2023-12-14T15:19:30.402Z,9.79
2023-12-14T15:22:36.812Z,9.84
2023-12-14T15:25:39.179Z,9.84
2023-12-14T15:28:41.908Z,9.59
2023-12-14T15:31:44.236Z,9.71
2023-12-14T15:34:46.814Z,9.67
2023-12-14T15:37:49.071Z,9.78
2023-12-14T15:40:51.589Z,9.62
2023-12-14T15:43:53.866Z,9.78
2023-12-14T15:46:56.390Z,9.79
2023-12-14T15:49:58.591Z,9.47
2023-12-14T15:53:01.105Z,9.59
2023-12-14T15:56:03.576Z,9.54
2023-12-14T15:59:08.221Z,9.53
2023-12-14T16:02:10.568Z,9.64
2023-12-14T16:05:13.186Z,9.23
2023-12-14T16:08:15.518Z,9.15
2023-12-14T16:11:17.981Z,9.38
2023-12-14T16:14:20.267Z,9.55
2023-12-14T16:17:22.736Z,9.51
2023-12-14T16:20:26.855Z,9.61
2023-12-14T16:23:29.396Z,9.39
2023-12-14T16:26:32.391Z,9.45
2023-12-14T16:29:37.956Z,9.37
2023-12-14T16:32:40.512Z,9.34
2023-12-14T16:35:43.562Z,9.20
